sensor_id;sensor_type;location;lat;lon;timestamp;pressure;altitude;pressure_sealevel;temperature;humidity
81299;BME280;70766;53.170;18.160;2024-03-29T00:00:29;99270.36;;;8.60;90.13
81299;BME280;70766;53.170;18.160;2024-03-29T00:03:17;99271.48;;;8.57;90.22
81299;BME280;70766;53.170;18.160;2024-03-29T00:05:45;99278.71;;;8.54;90.21
81299;BME280;70766;53.170;18.160;2024-03-29T00:08:13;99283.48;;;8.50;90.25
81299;BME280;70766;53.170;18.160;2024-03-29T00:10:41;99295.71;;;8.45;90.69
81299;BME280;70766;53.170;18.160;2024-03-29T00:13:09;99296.41;;;8.38;90.80
81299;BME280;70766;53.170;18.160;2024-03-29T00:15:37;99302.45;;;8.30;91.15
81299;BME280;70766;53.170;18.160;2024-03-29T00:18:05;99307.95;;;8.22;91.04
81299;BME280;70766;53.170;18.160;2024-03-29T00:20:33;99313.56;;;8.11;92.00
81299;BME280;70766;53.170;18.160;2024-03-29T00:23:01;99321.13;;;8.03;92.04
81299;BME280;70766;53.170;18.160;2024-03-29T00:25:28;99328.32;;;7.96;92.08
81299;BME280;70766;53.170;18.160;2024-03-29T00:27:56;99332.55;;;7.87;93.29
81299;BME280;70766;53.170;18.160;2024-03-29T00:30:24;99335.66;;;7.81;93.53
81299;BME280;70766;53.170;18.160;2024-03-29T00:32:52;99340.58;;;7.75;93.95
81299;BME280;70766;53.170;18.160;2024-03-29T00:35:20;99351.46;;;7.69;94.44
81299;BME280;70766;53.170;18.160;2024-03-29T00:37:50;99363.42;;;7.66;94.94
81299;BME280;70766;53.170;18.160;2024-03-29T00:40:18;99366.91;;;7.64;94.82
81299;BME280;70766;53.170;18.160;2024-03-29T00:42:46;99375.05;;;7.62;95.34
81299;BME280;70766;53.170;18.160;2024-03-29T00:45:14;99375.52;;;7.59;95.08
81299;BME280;70766;53.170;18.160;2024-03-29T00:47:59;99380.02;;;7.57;95.49
81299;BME280;70766;53.170;18.160;2024-03-29T00:50:27;99383.48;;;7.53;95.47
81299;BME280;70766;53.170;18.160;2024-03-29T00:52:54;99390.80;;;7.48;95.98
81299;BME280;70766;53.170;18.160;2024-03-29T00:55:22;99401.30;;;7.45;96.11
81299;BME280;70766;53.170;18.160;2024-03-29T00:57:50;99406.21;;;7.42;96.56
81299;BME280;70766;53.170;18.160;2024-03-29T01:00:18;99404.29;;;7.37;96.23
81299;BME280;70766;53.170;18.160;2024-03-29T01:02:50;99412.57;;;7.34;97.22
81299;BME280;70766;53.170;18.160;2024-03-29T01:05:17;99412.46;;;7.31;97.53
81299;BME280;70766;53.170;18.160;2024-03-29T01:07:45;99416.53;;;7.30;97.31
81299;BME280;70766;53.170;18.160;2024-03-29T01:10:13;99426.16;;;7.28;97.29
81299;BME280;70766;53.170;18.160;2024-03-29T01:12:41;99430.50;;;7.24;97.46
81299;BME280;70766;53.170;18.160;2024-03-29T01:15:09;99443.62;;;7.18;98.01
81299;BME280;70766;53.170;18.160;2024-03-29T01:17:37;99444.39;;;7.12;97.43
81299;BME280;70766;53.170;18.160;2024-03-29T01:20:05;99444.27;;;7.06;97.51
81299;BME280;70766;53.170;18.160;2024-03-29T01:22:36;99451.33;;;7.00;98.06
81299;BME280;70766;53.170;18.160;2024-03-29T01:25:04;99458.35;;;6.95;98.94
81299;BME280;70766;53.170;18.160;2024-03-29T01:27:35;99467.55;;;6.89;98.79
81299;BME280;70766;53.170;18.160;2024-03-29T01:30:03;99474.48;;;6.83;99.61
81299;BME280;70766;53.170;18.160;2024-03-29T01:32:31;99478.66;;;6.78;99.57
81299;BME280;70766;53.170;18.160;2024-03-29T01:34:59;99485.65;;;6.71;99.66
81299;BME280;70766;53.170;18.160;2024-03-29T01:37:27;99488.64;;;6.65;99.64
81299;BME280;70766;53.170;18.160;2024-03-29T01:39:55;99498.67;;;6.59;99.95
81299;BME280;70766;53.170;18.160;2024-03-29T01:42:23;99505.59;;;6.52;99.69
81299;BME280;70766;53.170;18.160;2024-03-29T01:44:50;99511.98;;;6.49;100.00
81299;BME280;70766;53.170;18.160;2024-03-29T01:47:18;99514.33;;;6.44;100.00
81299;BME280;70766;53.170;18.160;2024-03-29T01:49:46;99519.08;;;6.40;100.00
81299;BME280;70766;53.170;18.160;2024-03-29T01:52:16;99527.91;;;6.37;100.00
81299;BME280;70766;53.170;18.160;2024-03-29T01:54:45;99536.21;;;6.37;100.00
81299;BME280;70766;53.170;18.160;2024-03-29T01:57:16;99547.89;;;6.39;100.00
81299;BME280;70766;53.170;18.160;2024-03-29T01:59:45;99556.61;;;6.40;100.00
81299;BME280;70766;53.170;18.160;2024-03-29T02:02:14;99554.67;;;6.38;100.00
81299;BME280;70766;53.170;18.160;2024-03-29T02:04:42;99552.15;;;6.37;100.00
81299;BME280;70766;53.170;18.160;2024-03-29T02:07:10;99556.91;;;6.36;100.00
81299;BME280;70766;53.170;18.160;2024-03-29T02:09:38;99561.19;;;6.36;100.00
81299;BME280;70766;53.170;18.160;2024-03-29T02:12:06;99577.33;;;6.36;100.00
81299;BME280;70766;53.170;18.160;2024-03-29T02:14:34;99586.37;;;6.35;100.00
81299;BME280;70766;53.170;18.160;2024-03-29T02:17:02;99587.60;;;6.35;100.00
81299;BME280;70766;53.170;18.160;2024-03-29T02:19:31;99589.35;;;6.35;100.00
81299;BME280;70766;53.170;18.160;2024-03-29T02:21:59;99594.58;;;6.37;100.00
81299;BME280;70766;53.170;18.160;2024-03-29T02:24:28;99602.71;;;6.36;100.00
81299;BME280;70766;53.170;18.160;2024-03-29T02:26:56;99603.42;;;6.35;100.00
81299;BME280;70766;53.170;18.160;2024-03-29T02:29:24;99608.77;;;6.32;100.00
81299;BME280;70766;53.170;18.160;2024-03-29T02:31:52;99613.91;;;6.29;100.00
81299;BME280;70766;53.170;18.160;2024-03-29T02:34:20;99614.56;;;6.23;100.00
81299;BME280;70766;53.170;18.160;2024-03-29T02:36:48;99616.17;;;6.21;100.00
81299;BME280;70766;53.170;18.160;2024-03-29T02:39:15;99618.50;;;6.19;100.00
81299;BME280;70766;53.170;18.160;2024-03-29T02:41:43;99626.09;;;6.19;100.00
81299;BME280;70766;53.170;18.160;2024-03-29T02:44:11;99630.41;;;6.17;100.00
81299;BME280;70766;53.170;18.160;2024-03-29T02:46:39;99629.80;;;6.13;100.00
81299;BME280;70766;53.170;18.160;2024-03-29T02:49:08;99630.48;;;6.08;100.00
81299;BME280;70766;53.170;18.160;2024-03-29T02:51:37;99629.92;;;6.04;100.00
81299;BME280;70766;53.170;18.160;2024-03-29T02:54:05;99635.22;;;5.99;100.00
81299;BME280;70766;53.170;18.160;2024-03-29T02:56:32;99639.58;;;5.93;100.00
81299;BME280;70766;53.170;18.160;2024-03-29T02:59:00;99644.48;;;5.91;100.00
81299;BME280;70766;53.170;18.160;2024-03-29T03:01:28;99645.95;;;5.89;100.00
81299;BME280;70766;53.170;18.160;2024-03-29T03:03:56;99650.98;;;5.84;100.00
81299;BME280;70766;53.170;18.160;2024-03-29T03:06:24;99656.48;;;5.80;100.00
81299;BME280;70766;53.170;18.160;2024-03-29T03:08:51;99658.88;;;5.77;100.00
81299;BME280;70766;53.170;18.160;2024-03-29T03:11:38;99654.23;;;5.73;100.00
81299;BME280;70766;53.170;18.160;2024-03-29T03:14:06;99660.89;;;5.70;100.00
81299;BME280;70766;53.170;18.160;2024-03-29T03:16:33;99660.26;;;5.67;100.00
81299;BME280;70766;53.170;18.160;2024-03-29T03:19:01;99665.43;;;5.62;100.00
81299;BME280;70766;53.170;18.160;2024-03-29T03:21:30;99676.09;;;5.56;100.00
81299;BME280;70766;53.170;18.160;2024-03-29T03:23:58;99675.74;;;5.50;100.00
81299;BME280;70766;53.170;18.160;2024-03-29T03:26:26;99672.43;;;5.43;100.00
81299;BME280;70766;53.170;18.160;2024-03-29T03:28:54;99666.83;;;5.39;100.00
81299;BME280;70766;53.170;18.160;2024-03-29T03:31:22;99670.23;;;5.37;100.00
81299;BME280;70766;53.170;18.160;2024-03-29T03:33:50;99673.40;;;5.36;100.00
81299;BME280;70766;53.170;18.160;2024-03-29T03:36:17;99676.70;;;5.30;100.00
81299;BME280;70766;53.170;18.160;2024-03-29T03:38:45;99674.05;;;5.26;100.00
81299;BME280;70766;53.170;18.160;2024-03-29T03:41:13;99676.00;;;5.23;100.00
81299;BME280;70766;53.170;18.160;2024-03-29T03:43:41;99669.58;;;5.22;100.00
81299;BME280;70766;53.170;18.160;2024-03-29T03:46:09;99664.70;;;5.23;100.00
81299;BME280;70766;53.170;18.160;2024-03-29T03:48:37;99663.66;;;5.25;100.00
81299;BME280;70766;53.170;18.160;2024-03-29T03:51:05;99671.63;;;5.26;100.00
81299;BME280;70766;53.170;18.160;2024-03-29T03:53:32;99680.78;;;5.23;100.00
81299;BME280;70766;53.170;18.160;2024-03-29T03:56:00;99680.14;;;5.17;100.00
81299;BME280;70766;53.170;18.160;2024-03-29T03:58:28;99685.13;;;5.10;100.00
81299;BME280;70766;53.170;18.160;2024-03-29T04:00:56;99686.20;;;5.03;100.00
81299;BME280;70766;53.170;18.160;2024-03-29T04:03:24;99695.08;;;4.98;100.00
81299;BME280;70766;53.170;18.160;2024-03-29T04:05:52;99695.48;;;4.97;100.00
81299;BME280;70766;53.170;18.160;2024-03-29T04:08:20;99696.88;;;4.99;100.00
81299;BME280;70766;53.170;18.160;2024-03-29T04:10:48;99691.17;;;5.00;100.00
81299;BME280;70766;53.170;18.160;2024-03-29T04:13:17;99685.95;;;4.99;100.00
81299;BME280;70766;53.170;18.160;2024-03-29T04:15:45;99689.29;;;5.01;100.00
81299;BME280;70766;53.170;18.160;2024-03-29T04:18:13;99695.31;;;5.05;100.00
81299;BME280;70766;53.170;18.160;2024-03-29T04:20:41;99706.75;;;5.03;100.00
81299;BME280;70766;53.170;18.160;2024-03-29T04:23:08;99708.95;;;4.99;100.00
81299;BME280;70766;53.170;18.160;2024-03-29T04:25:36;99703.01;;;4.92;100.00
81299;BME280;70766;53.170;18.160;2024-03-29T04:28:04;99700.61;;;4.89;100.00
81299;BME280;70766;53.170;18.160;2024-03-29T04:30:32;99703.23;;;4.89;100.00
81299;BME280;70766;53.170;18.160;2024-03-29T04:33:00;99710.05;;;4.91;100.00
81299;BME280;70766;53.170;18.160;2024-03-29T04:35:28;99708.30;;;4.91;100.00
81299;BME280;70766;53.170;18.160;2024-03-29T04:37:56;99709.80;;;4.91;100.00
81299;BME280;70766;53.170;18.160;2024-03-29T04:40:24;99722.09;;;4.95;100.00
81299;BME280;70766;53.170;18.160;2024-03-29T04:42:52;99716.71;;;4.97;100.00
81299;BME280;70766;53.170;18.160;2024-03-29T04:45:20;99717.67;;;5.02;100.00
81299;BME280;70766;53.170;18.160;2024-03-29T04:47:48;99724.96;;;5.07;100.00
81299;BME280;70766;53.170;18.160;2024-03-29T04:50:16;99720.14;;;5.12;100.00
81299;BME280;70766;53.170;18.160;2024-03-29T04:52:43;99717.92;;;5.15;100.00
81299;BME280;70766;53.170;18.160;2024-03-29T04:55:11;99728.13;;;5.17;100.00
81299;BME280;70766;53.170;18.160;2024-03-29T04:57:39;99729.67;;;5.19;100.00
81299;BME280;70766;53.170;18.160;2024-03-29T05:00:08;99732.09;;;5.19;100.00
81299;BME280;70766;53.170;18.160;2024-03-29T05:02:36;99737.52;;;5.19;100.00
81299;BME280;70766;53.170;18.160;2024-03-29T05:05:05;99738.89;;;5.19;100.00
81299;BME280;70766;53.170;18.160;2024-03-29T05:07:33;99741.27;;;5.17;100.00
81299;BME280;70766;53.170;18.160;2024-03-29T05:10:01;99742.31;;;5.15;100.00
81299;BME280;70766;53.170;18.160;2024-03-29T05:12:31;99744.97;;;5.15;100.00
81299;BME280;70766;53.170;18.160;2024-03-29T05:14:59;99744.66;;;5.19;100.00
81299;BME280;70766;53.170;18.160;2024-03-29T05:17:27;99734.20;;;5.27;100.00
81299;BME280;70766;53.170;18.160;2024-03-29T05:19:55;99730.55;;;5.35;100.00
81299;BME280;70766;53.170;18.160;2024-03-29T05:22:23;99743.94;;;5.42;100.00
81299;BME280;70766;53.170;18.160;2024-03-29T05:24:54;99751.19;;;5.49;100.00
81299;BME280;70766;53.170;18.160;2024-03-29T05:27:22;99745.65;;;5.57;100.00
81299;BME280;70766;53.170;18.160;2024-03-29T05:29:50;99738.48;;;5.66;100.00
81299;BME280;70766;53.170;18.160;2024-03-29T05:32:18;99730.54;;;5.77;100.00
81299;BME280;70766;53.170;18.160;2024-03-29T05:34:46;99734.29;;;5.86;100.00
81299;BME280;70766;53.170;18.160;2024-03-29T05:37:14;99727.30;;;5.97;100.00
81299;BME280;70766;53.170;18.160;2024-03-29T05:39:44;99730.69;;;6.08;100.00
81299;BME280;70766;53.170;18.160;2024-03-29T05:42:13;99734.10;;;6.17;100.00
81299;BME280;70766;53.170;18.160;2024-03-29T05:44:40;99734.14;;;6.33;100.00
81299;BME280;70766;53.170;18.160;2024-03-29T05:47:08;99739.63;;;6.45;100.00
81299;BME280;70766;53.170;18.160;2024-03-29T05:49:36;99750.88;;;6.54;100.00
81299;BME280;70766;53.170;18.160;2024-03-29T05:52:04;99751.91;;;6.64;100.00
81299;BME280;70766;53.170;18.160;2024-03-29T05:54:32;99756.47;;;6.73;100.00
81299;BME280;70766;53.170;18.160;2024-03-29T05:57:00;99760.66;;;6.79;100.00
81299;BME280;70766;53.170;18.160;2024-03-29T05:59:27;99766.51;;;6.88;100.00
81299;BME280;70766;53.170;18.160;2024-03-29T06:01:55;99774.95;;;6.98;100.00
81299;BME280;70766;53.170;18.160;2024-03-29T06:04:23;99779.02;;;7.08;100.00
81299;BME280;70766;53.170;18.160;2024-03-29T06:07:02;99777.16;;;7.18;100.00
81299;BME280;70766;53.170;18.160;2024-03-29T06:09:31;99780.80;;;7.28;100.00
81299;BME280;70766;53.170;18.160;2024-03-29T06:12:01;99787.39;;;7.39;100.00
81299;BME280;70766;53.170;18.160;2024-03-29T06:14:29;99794.15;;;7.51;100.00
81299;BME280;70766;53.170;18.160;2024-03-29T06:17:15;99798.60;;;7.64;100.00
81299;BME280;70766;53.170;18.160;2024-03-29T06:19:55;99795.40;;;7.79;100.00
81299;BME280;70766;53.170;18.160;2024-03-29T06:22:32;99787.15;;;7.94;100.00
81299;BME280;70766;53.170;18.160;2024-03-29T06:24:59;99778.63;;;8.06;99.53
81299;BME280;70766;53.170;18.160;2024-03-29T06:27:33;99787.90;;;8.22;99.19
81299;BME280;70766;53.170;18.160;2024-03-29T06:30:02;99791.18;;;8.34;98.50
81299;BME280;70766;53.170;18.160;2024-03-29T06:32:31;99791.11;;;8.65;97.38
81299;BME280;70766;53.170;18.160;2024-03-29T06:34:59;99795.80;;;9.39;93.50
81299;BME280;70766;53.170;18.160;2024-03-29T06:37:28;99799.73;;;10.05;91.78
81299;BME280;70766;53.170;18.160;2024-03-29T06:39:57;99804.61;;;10.50;87.34
81299;BME280;70766;53.170;18.160;2024-03-29T06:42:25;99808.41;;;10.92;85.99
81299;BME280;70766;53.170;18.160;2024-03-29T06:44:52;99810.05;;;11.23;83.81
81299;BME280;70766;53.170;18.160;2024-03-29T06:47:22;99816.09;;;11.47;82.03
81299;BME280;70766;53.170;18.160;2024-03-29T06:49:50;99815.16;;;11.79;80.96
81299;BME280;70766;53.170;18.160;2024-03-29T06:52:18;99801.70;;;12.00;78.02
81299;BME280;70766;53.170;18.160;2024-03-29T06:54:46;99797.05;;;12.08;76.96
81299;BME280;70766;53.170;18.160;2024-03-29T06:57:14;99795.32;;;12.49;78.14
81299;BME280;70766;53.170;18.160;2024-03-29T06:59:45;99790.76;;;12.88;75.58
81299;BME280;70766;53.170;18.160;2024-03-29T07:02:13;99782.39;;;13.08;75.40
81299;BME280;70766;53.170;18.160;2024-03-29T07:04:41;99773.98;;;13.21;72.63
81299;BME280;70766;53.170;18.160;2024-03-29T07:07:09;99765.30;;;13.22;70.31
81299;BME280;70766;53.170;18.160;2024-03-29T07:09:37;99759.67;;;13.14;70.20
81299;BME280;70766;53.170;18.160;2024-03-29T07:12:06;99760.46;;;13.04;70.78
81299;BME280;70766;53.170;18.160;2024-03-29T07:14:34;99762.86;;;13.16;70.01
81299;BME280;70766;53.170;18.160;2024-03-29T07:17:03;99771.66;;;13.24;69.16
81299;BME280;70766;53.170;18.160;2024-03-29T07:19:31;99785.27;;;13.30;68.72
81299;BME280;70766;53.170;18.160;2024-03-29T07:21:59;99797.48;;;13.39;68.02
81299;BME280;70766;53.170;18.160;2024-03-29T07:24:28;99798.99;;;13.45;67.31
81299;BME280;70766;53.170;18.160;2024-03-29T07:26:57;99802.79;;;13.59;67.92
81299;BME280;70766;53.170;18.160;2024-03-29T07:29:25;99799.21;;;13.73;66.60
81299;BME280;70766;53.170;18.160;2024-03-29T07:31:53;99804.24;;;13.59;65.49
81299;BME280;70766;53.170;18.160;2024-03-29T07:34:21;99805.88;;;13.63;64.68
81299;BME280;70766;53.170;18.160;2024-03-29T07:36:49;99809.12;;;13.69;64.31
81299;BME280;70766;53.170;18.160;2024-03-29T07:39:17;99814.21;;;13.97;63.56
81299;BME280;70766;53.170;18.160;2024-03-29T07:41:45;99814.88;;;14.21;63.86
81299;BME280;70766;53.170;18.160;2024-03-29T07:44:13;99814.19;;;14.40;61.81
81299;BME280;70766;53.170;18.160;2024-03-29T07:46:41;99821.96;;;14.27;62.00
81299;BME280;70766;53.170;18.160;2024-03-29T07:49:09;99828.31;;;14.35;61.33
81299;BME280;70766;53.170;18.160;2024-03-29T07:51:41;99833.95;;;14.32;61.42
81299;BME280;70766;53.170;18.160;2024-03-29T07:54:09;99823.28;;;14.43;60.08
81299;BME280;70766;53.170;18.160;2024-03-29T07:56:37;99839.88;;;14.29;60.86
81299;BME280;70766;53.170;18.160;2024-03-29T07:59:04;99832.10;;;14.43;60.09
81299;BME280;70766;53.170;18.160;2024-03-29T08:01:33;99833.80;;;14.59;59.89
81299;BME280;70766;53.170;18.160;2024-03-29T08:04:08;99837.31;;;14.58;59.39
81299;BME280;70766;53.170;18.160;2024-03-29T08:06:36;99838.18;;;14.49;58.74
81299;BME280;70766;53.170;18.160;2024-03-29T08:09:04;99839.20;;;14.59;58.93
81299;BME280;70766;53.170;18.160;2024-03-29T08:11:32;99833.29;;;14.68;58.84
81299;BME280;70766;53.170;18.160;2024-03-29T08:14:00;99835.39;;;14.74;58.87
81299;BME280;70766;53.170;18.160;2024-03-29T08:16:28;99840.92;;;14.83;57.52
81299;BME280;70766;53.170;18.160;2024-03-29T08:18:56;99841.66;;;14.94;57.97
81299;BME280;70766;53.170;18.160;2024-03-29T08:21:25;99843.05;;;15.10;57.32
81299;BME280;70766;53.170;18.160;2024-03-29T08:24:01;99846.77;;;15.28;56.71
81299;BME280;70766;53.170;18.160;2024-03-29T08:26:29;99852.98;;;15.03;56.60
81299;BME280;70766;53.170;18.160;2024-03-29T08:28:57;99858.75;;;15.19;56.48
81299;BME280;70766;53.170;18.160;2024-03-29T08:31:25;99867.68;;;15.34;55.38
81299;BME280;70766;53.170;18.160;2024-03-29T08:33:53;99862.87;;;15.49;54.90
81299;BME280;70766;53.170;18.160;2024-03-29T08:36:29;99862.94;;;15.68;53.84
81299;BME280;70766;53.170;18.160;2024-03-29T08:38:57;99858.39;;;16.02;53.71
81299;BME280;70766;53.170;18.160;2024-03-29T08:41:25;99858.63;;;16.07;52.86
81299;BME280;70766;53.170;18.160;2024-03-29T08:43:54;99851.23;;;16.11;51.73
81299;BME280;70766;53.170;18.160;2024-03-29T08:46:22;99848.68;;;15.88;49.84
81299;BME280;70766;53.170;18.160;2024-03-29T08:48:51;99850.05;;;15.78;49.76
81299;BME280;70766;53.170;18.160;2024-03-29T08:51:20;99860.77;;;15.70;49.97
81299;BME280;70766;53.170;18.160;2024-03-29T08:53:48;99864.73;;;15.66;49.95
81299;BME280;70766;53.170;18.160;2024-03-29T08:56:17;99863.20;;;15.77;49.67
81299;BME280;70766;53.170;18.160;2024-03-29T08:58:45;99867.11;;;15.74;49.48
81299;BME280;70766;53.170;18.160;2024-03-29T09:01:13;99861.55;;;15.90;49.38
81299;BME280;70766;53.170;18.160;2024-03-29T09:03:43;99860.09;;;15.99;49.02
81299;BME280;70766;53.170;18.160;2024-03-29T09:06:11;99866.01;;;15.79;49.20
81299;BME280;70766;53.170;18.160;2024-03-29T09:08:39;99868.54;;;15.90;49.09
81299;BME280;70766;53.170;18.160;2024-03-29T09:11:08;99869.95;;;15.87;49.03
81299;BME280;70766;53.170;18.160;2024-03-29T09:13:38;99875.99;;;15.90;48.65
81299;BME280;70766;53.170;18.160;2024-03-29T09:16:06;99879.30;;;15.99;48.38
81299;BME280;70766;53.170;18.160;2024-03-29T09:18:34;99879.30;;;15.93;48.46
81299;BME280;70766;53.170;18.160;2024-03-29T09:21:02;99880.65;;;16.08;48.85
81299;BME280;70766;53.170;18.160;2024-03-29T09:23:30;99879.89;;;16.28;48.79
81299;BME280;70766;53.170;18.160;2024-03-29T09:25:58;99883.58;;;16.45;47.87
81299;BME280;70766;53.170;18.160;2024-03-29T09:28:27;99878.32;;;16.57;47.82
81299;BME280;70766;53.170;18.160;2024-03-29T09:30:58;99881.11;;;16.39;47.26
81299;BME280;70766;53.170;18.160;2024-03-29T09:33:29;99890.55;;;16.39;47.76
81299;BME280;70766;53.170;18.160;2024-03-29T09:35:58;99891.70;;;16.21;47.75
81299;BME280;70766;53.170;18.160;2024-03-29T09:38:27;99888.85;;;16.57;46.97
81299;BME280;70766;53.170;18.160;2024-03-29T09:41:14;99880.48;;;16.80;46.06
81299;BME280;70766;53.170;18.160;2024-03-29T09:43:43;99876.11;;;16.74;45.07
81299;BME280;70766;53.170;18.160;2024-03-29T09:46:16;99897.75;;;16.72;45.42
81299;BME280;70766;53.170;18.160;2024-03-29T09:48:44;99906.77;;;16.63;45.62
81299;BME280;70766;53.170;18.160;2024-03-29T09:51:16;99913.91;;;16.87;45.42
81299;BME280;70766;53.170;18.160;2024-03-29T09:53:46;99912.61;;;17.13;44.56
81299;BME280;70766;53.170;18.160;2024-03-29T09:56:14;99908.48;;;17.28;43.94
81299;BME280;70766;53.170;18.160;2024-03-29T09:58:42;99904.85;;;17.28;43.98
81299;BME280;70766;53.170;18.160;2024-03-29T10:01:10;99897.74;;;17.29;43.11
81299;BME280;70766;53.170;18.160;2024-03-29T10:03:49;99902.85;;;17.27;43.17
81299;BME280;70766;53.170;18.160;2024-03-29T10:06:23;99904.80;;;17.37;43.09
81299;BME280;70766;53.170;18.160;2024-03-29T10:08:51;99901.60;;;17.28;42.61
81299;BME280;70766;53.170;18.160;2024-03-29T10:11:22;99903.52;;;17.16;42.78
81299;BME280;70766;53.170;18.160;2024-03-29T10:13:50;99916.59;;;17.02;42.62
81299;BME280;70766;53.170;18.160;2024-03-29T10:16:19;99913.64;;;16.64;42.85
81299;BME280;70766;53.170;18.160;2024-03-29T10:18:48;99907.64;;;16.68;42.70
81299;BME280;70766;53.170;18.160;2024-03-29T10:21:16;99907.41;;;16.71;42.82
81299;BME280;70766;53.170;18.160;2024-03-29T10:23:44;99914.76;;;16.78;42.36
81299;BME280;70766;53.170;18.160;2024-03-29T10:26:19;99922.58;;;16.88;42.52
81299;BME280;70766;53.170;18.160;2024-03-29T10:28:47;99916.40;;;17.04;42.29
81299;BME280;70766;53.170;18.160;2024-03-29T10:31:17;99918.73;;;16.98;42.16
81299;BME280;70766;53.170;18.160;2024-03-29T10:33:45;99926.82;;;16.87;42.91
81299;BME280;70766;53.170;18.160;2024-03-29T10:36:13;99920.54;;;17.07;42.84
81299;BME280;70766;53.170;18.160;2024-03-29T10:38:41;99917.80;;;17.25;42.18
81299;BME280;70766;53.170;18.160;2024-03-29T10:41:10;99908.64;;;17.36;42.12
81299;BME280;70766;53.170;18.160;2024-03-29T10:43:38;99904.14;;;17.49;40.89
81299;BME280;70766;53.170;18.160;2024-03-29T10:46:08;99913.27;;;17.54;40.81
81299;BME280;70766;53.170;18.160;2024-03-29T10:48:37;99909.99;;;17.71;40.38
81299;BME280;70766;53.170;18.160;2024-03-29T10:51:07;99923.13;;;17.34;40.58
81299;BME280;70766;53.170;18.160;2024-03-29T10:53:35;99912.77;;;16.92;40.83
81299;BME280;70766;53.170;18.160;2024-03-29T10:56:07;99930.59;;;16.96;40.63
81299;BME280;70766;53.170;18.160;2024-03-29T10:58:38;99926.95;;;17.06;40.58
81299;BME280;70766;53.170;18.160;2024-03-29T11:01:08;99921.04;;;17.12;40.50
81299;BME280;70766;53.170;18.160;2024-03-29T11:03:44;99913.08;;;17.19;40.39
81299;BME280;70766;53.170;18.160;2024-03-29T11:06:13;99918.25;;;17.43;40.41
81299;BME280;70766;53.170;18.160;2024-03-29T11:08:43;99914.17;;;17.68;39.70
81299;BME280;70766;53.170;18.160;2024-03-29T11:11:15;99910.14;;;17.76;39.47
81299;BME280;70766;53.170;18.160;2024-03-29T11:14:00;99911.05;;;17.77;38.81
81299;BME280;70766;53.170;18.160;2024-03-29T11:16:30;99913.83;;;17.88;39.09
81299;BME280;70766;53.170;18.160;2024-03-29T11:18:58;99908.26;;;18.20;38.71
81299;BME280;70766;53.170;18.160;2024-03-29T11:21:27;99904.80;;;18.30;37.85
81299;BME280;70766;53.170;18.160;2024-03-29T11:23:56;99901.91;;;18.48;37.75
81299;BME280;70766;53.170;18.160;2024-03-29T11:26:25;99890.52;;;18.43;37.05
81299;BME280;70766;53.170;18.160;2024-03-29T11:28:53;99887.76;;;18.21;37.25
81299;BME280;70766;53.170;18.160;2024-03-29T11:31:24;99888.27;;;18.23;37.19
81299;BME280;70766;53.170;18.160;2024-03-29T11:33:52;99884.98;;;18.42;37.15
81299;BME280;70766;53.170;18.160;2024-03-29T11:36:27;99873.83;;;18.54;36.80
81299;BME280;70766;53.170;18.160;2024-03-29T11:38:57;99874.48;;;18.63;36.39
81299;BME280;70766;53.170;18.160;2024-03-29T11:41:27;99867.16;;;18.72;36.04
81299;BME280;70766;53.170;18.160;2024-03-29T11:43:57;99874.34;;;18.78;35.89
81299;BME280;70766;53.170;18.160;2024-03-29T11:46:26;99879.10;;;18.91;35.87
81299;BME280;70766;53.170;18.160;2024-03-29T11:48:54;99880.60;;;18.80;36.06
81299;BME280;70766;53.170;18.160;2024-03-29T11:51:23;99887.33;;;18.81;36.51
81299;BME280;70766;53.170;18.160;2024-03-29T11:53:52;99888.83;;;18.72;35.71
81299;BME280;70766;53.170;18.160;2024-03-29T11:56:20;99877.09;;;18.18;35.93
81299;BME280;70766;53.170;18.160;2024-03-29T11:58:48;99873.59;;;17.77;36.16
81299;BME280;70766;53.170;18.160;2024-03-29T12:01:16;99868.58;;;17.90;36.56
81299;BME280;70766;53.170;18.160;2024-03-29T12:03:44;99871.88;;;18.02;35.85
81299;BME280;70766;53.170;18.160;2024-03-29T12:06:14;99887.15;;;18.15;36.26
81299;BME280;70766;53.170;18.160;2024-03-29T12:08:45;99887.59;;;18.40;35.40
81299;BME280;70766;53.170;18.160;2024-03-29T12:11:13;99892.69;;;18.73;35.35
81299;BME280;70766;53.170;18.160;2024-03-29T12:13:44;99886.97;;;18.58;34.93
81299;BME280;70766;53.170;18.160;2024-03-29T12:16:12;99894.01;;;18.46;35.18
81299;BME280;70766;53.170;18.160;2024-03-29T12:18:40;99887.35;;;18.33;35.18
81299;BME280;70766;53.170;18.160;2024-03-29T12:21:08;99892.70;;;18.32;35.09
81299;BME280;70766;53.170;18.160;2024-03-29T12:23:37;99895.59;;;18.31;35.84
81299;BME280;70766;53.170;18.160;2024-03-29T12:26:06;99894.73;;;18.41;35.62
81299;BME280;70766;53.170;18.160;2024-03-29T12:28:34;99901.05;;;18.52;35.44
81299;BME280;70766;53.170;18.160;2024-03-29T12:31:02;99893.85;;;18.56;34.70
81299;BME280;70766;53.170;18.160;2024-03-29T12:33:31;99890.64;;;18.59;34.67
81299;BME280;70766;53.170;18.160;2024-03-29T12:35:59;99891.29;;;18.60;34.63
81299;BME280;70766;53.170;18.160;2024-03-29T12:38:27;99893.61;;;18.76;34.67
81299;BME280;70766;53.170;18.160;2024-03-29T12:40:55;99900.66;;;18.71;34.32
81299;BME280;70766;53.170;18.160;2024-03-29T12:43:24;99903.42;;;18.61;34.41
81299;BME280;70766;53.170;18.160;2024-03-29T12:45:52;99894.21;;;18.57;34.81
81299;BME280;70766;53.170;18.160;2024-03-29T12:48:21;99890.34;;;18.61;34.71
81299;BME280;70766;53.170;18.160;2024-03-29T12:50:52;99884.98;;;18.62;34.28
81299;BME280;70766;53.170;18.160;2024-03-29T12:53:21;99881.00;;;18.34;34.01
81299;BME280;70766;53.170;18.160;2024-03-29T12:55:49;99878.29;;;18.19;34.34
81299;BME280;70766;53.170;18.160;2024-03-29T12:58:17;99880.48;;;18.28;34.55
81299;BME280;70766;53.170;18.160;2024-03-29T13:00:49;99871.18;;;18.56;33.91